Time;durP1;ratioP1;P1;durP2;ratioP2;P2;SDS_P1;SDS_P2;PMS_P1;PMS_P2;Temp;Humidity;BMP_temperature;BMP_pressure;BME280_temperature;BME280_humidity;BME280_pressure;Samples;Min_cycle;Max_cycle;Signal;HPM_P1;HPM_P2
2022/03/30 00:00:56;;;;;;;52.08;23.48;;;;;;;;;;5103552;28;20052;-79
2022/03/30 00:03:41;;;;;;;92.85;30.15;;;;;;;;;;5103666;28;20040;-80
2022/03/30 00:06:27;;;;;;;62.78;26.95;;;;;;;;;;5097289;28;20040;-79
2022/03/30 00:09:12;;;;;;;62.47;28.23;;;;;;;;;;5102504;28;20044;-79
2022/03/30 00:11:59;;;;;;;61.85;30.80;;;;;;;;;;5096560;28;20051;-80
2022/03/30 00:14:43;;;;;;;62.70;27.23;;;;;;;;;;5096587;28;20048;-79
2022/03/30 00:17:31;;;;;;;56.83;27.10;;;;;;;;;;5102906;28;20040;-81
2022/03/30 00:20:16;;;;;;;72.78;34.00;;;;;;;;;;5081623;28;20040;-81
2022/03/30 00:23:02;;;;;;;48.03;22.40;;;;;;;;;;5096136;28;20044;-79
2022/03/30 00:25:47;;;;;;;49.72;22.45;;;;;;;;;;5103135;28;20044;-80
2022/03/30 00:28:32;;;;;;;54.15;25.17;;;;;;;;;;5102714;28;20048;-79
2022/03/30 00:31:19;;;;;;;52.83;25.00;;;;;;;;;;5096415;28;20048;-79
2022/03/30 00:34:04;;;;;;;57.40;26.38;;;;;;;;;;5103122;28;20404;-79
2022/03/30 00:36:49;;;;;;;38.88;19.88;;;;;;;;;;5102878;28;20048;-78
2022/03/30 00:39:35;;;;;;;46.15;21.10;;;;;;;;;;5095719;28;20040;-80
2022/03/30 00:42:22;;;;;;;70.47;31.77;;;;;;;;;;5102780;28;20040;-80
2022/03/30 00:45:15;;;;;;;41.75;20.15;;;;;;;;;;5087667;28;20433;-79
2022/03/30 00:47:59;;;;;;;53.33;23.15;;;;;;;;;;5096233;28;20048;-78
2022/03/30 00:50:45;;;;;;;50.83;23.05;;;;;;;;;;5087433;28;20056;-79
2022/03/30 00:53:31;;;;;;;52.25;24.73;;;;;;;;;;5095106;28;20492;-79
2022/03/30 00:56:17;;;;;;;50.63;22.45;;;;;;;;;;5102365;28;20044;-79
2022/03/30 00:59:07;;;;;;;43.33;21.40;;;;;;;;;;5096025;28;20044;-79
2022/03/30 01:01:53;;;;;;;50.63;21.75;;;;;;;;;;5095284;28;20070;-80
2022/03/30 01:04:38;;;;;;;40.38;19.48;;;;;;;;;;5080560;28;20056;-80
2022/03/30 01:07:25;;;;;;;50.47;22.25;;;;;;;;;;5087203;28;20044;-80
2022/03/30 01:10:13;;;;;;;41.28;20.52;;;;;;;;;;5095730;28;20052;-80
2022/03/30 01:13:00;;;;;;;37.60;19.75;;;;;;;;;;5095692;28;20059;-79
2022/03/30 01:15:46;;;;;;;44.03;22.02;;;;;;;;;;5102076;28;20052;-82
2022/03/30 01:18:38;;;;;;;46.38;21.85;;;;;;;;;;5102187;28;20064;-78
2022/03/30 01:21:24;;;;;;;49.42;22.38;;;;;;;;;;5101961;28;20412;-80
2022/03/30 01:24:12;;;;;;;40.63;20.15;;;;;;;;;;5080240;28;20040;-79
2022/03/30 01:26:58;;;;;;;37.72;19.45;;;;;;;;;;5087659;28;20040;-81
2022/03/30 01:32:47;;;;;;;32.33;15.60;;;;;;;;;;5102262;28;20052;-80
2022/03/30 01:35:33;;;;;;;37.22;16.70;;;;;;;;;;5102204;28;20048;-80
2022/03/30 01:38:19;;;;;;;31.20;15.88;;;;;;;;;;5102474;28;20044;-81
2022/03/30 01:41:06;;;;;;;41.63;17.45;;;;;;;;;;5101570;28;20048;-81
2022/03/30 01:43:51;;;;;;;35.83;17.55;;;;;;;;;;5101542;28;20048;-79
2022/03/30 01:46:39;;;;;;;62.10;20.65;;;;;;;;;;5101722;28;20056;-79
2022/03/30 01:49:25;;;;;;;57.58;22.55;;;;;;;;;;5101498;28;20048;-79
2022/03/30 01:52:10;;;;;;;41.78;19.70;;;;;;;;;;5102061;28;20052;-79
2022/03/30 01:54:56;;;;;;;39.60;20.20;;;;;;;;;;5094825;28;20048;-78
2022/03/30 01:57:41;;;;;;;42.28;19.73;;;;;;;;;;5079350;28;20048;-80
2022/03/30 02:00:28;;;;;;;42.65;19.65;;;;;;;;;;5101548;28;20039;-80
2022/03/30 02:03:14;;;;;;;41.78;19.02;;;;;;;;;;5094114;28;20044;-79
2022/03/30 02:06:00;;;;;;;41.10;16.83;;;;;;;;;;5095145;28;20044;-80
2022/03/30 02:08:45;;;;;;;37.42;18.42;;;;;;;;;;5094500;28;20392;-80
2022/03/30 02:11:32;;;;;;;40.25;19.25;;;;;;;;;;5100943;28;20059;-79
2022/03/30 02:14:17;;;;;;;37.45;20.23;;;;;;;;;;5094473;28;20052;-79
2022/03/30 02:17:03;;;;;;;44.08;20.20;;;;;;;;;;5094139;28;20384;-79
2022/03/30 02:19:48;;;;;;;41.10;18.77;;;;;;;;;;5094766;28;20052;-79
2022/03/30 02:22:34;;;;;;;49.33;23.30;;;;;;;;;;5094005;28;20047;-79
2022/03/30 02:25:19;;;;;;;47.40;24.20;;;;;;;;;;5094155;28;20048;-79
2022/03/30 02:28:05;;;;;;;48.20;25.38;;;;;;;;;;5101025;28;20063;-79
2022/03/30 02:30:50;;;;;;;53.45;27.95;;;;;;;;;;5093729;28;20052;-80
2022/03/30 02:33:36;;;;;;;71.43;35.13;;;;;;;;;;5101296;28;20051;-79
2022/03/30 02:36:21;;;;;;;90.30;39.58;;;;;;;;;;5094188;28;20052;-80
2022/03/30 02:39:07;;;;;;;84.10;36.75;;;;;;;;;;5100457;28;20044;-79
2022/03/30 02:41:55;;;;;;;59.95;29.35;;;;;;;;;;5100688;28;20043;-81
2022/03/30 02:44:42;;;;;;;44.38;23.27;;;;;;;;;;5093148;28;20040;-79
2022/03/30 02:50:30;;;;;;;44.58;19.30;;;;;;;;;;5085831;28;20054;-79
2022/03/30 02:53:17;;;;;;;41.25;17.95;;;;;;;;;;5100578;28;20044;-81
2022/03/30 02:56:03;;;;;;;42.45;20.20;;;;;;;;;;5094166;28;20457;-80
2022/03/30 02:58:49;;;;;;;45.70;20.67;;;;;;;;;;5100132;28;20056;-79
2022/03/30 03:01:34;;;;;;;44.55;20.40;;;;;;;;;;5093948;28;20036;-80
2022/03/30 03:04:21;;;;;;;41.83;19.83;;;;;;;;;;5100452;28;20055;-79
2022/03/30 03:07:06;;;;;;;60.05;26.80;;;;;;;;;;5093500;28;20472;-80
2022/03/30 03:09:52;;;;;;;67.53;31.10;;;;;;;;;;5100944;28;20052;-81
2022/03/30 03:12:36;;;;;;;85.85;34.58;;;;;;;;;;5092989;28;20044;-78
2022/03/30 03:15:22;;;;;;;94.60;36.53;;;;;;;;;;5101592;28;20051;-80
2022/03/30 03:18:09;;;;;;;75.90;29.92;;;;;;;;;;5104422;28;20412;-80
2022/03/30 03:20:54;;;;;;;50.83;26.27;;;;;;;;;;5097500;28;20048;-78
2022/03/30 03:23:41;;;;;;;58.35;25.60;;;;;;;;;;5097692;28;20388;-82
2022/03/30 03:26:25;;;;;;;50.28;23.55;;;;;;;;;;5097262;28;20036;-79
2022/03/30 03:29:10;;;;;;;60.58;26.25;;;;;;;;;;5104667;28;20048;-79
2022/03/30 03:31:56;;;;;;;54.70;26.00;;;;;;;;;;5097846;28;20388;-80
2022/03/30 03:34:42;;;;;;;59.35;28.25;;;;;;;;;;5103533;28;20040;-79
2022/03/30 03:37:27;;;;;;;61.67;28.00;;;;;;;;;;5104646;28;20069;-79
2022/03/30 03:40:13;;;;;;;76.28;28.70;;;;;;;;;;5104215;28;20047;-79
2022/03/30 03:42:59;;;;;;;66.30;26.33;;;;;;;;;;5097389;28;20044;-80
2022/03/30 03:45:45;;;;;;;53.65;23.58;;;;;;;;;;5097284;28;20469;-80
2022/03/30 03:48:30;;;;;;;50.70;19.65;;;;;;;;;;5104885;28;20396;-81
2022/03/30 03:51:16;;;;;;;47.88;18.63;;;;;;;;;;5090960;28;20044;-78
2022/03/30 03:54:01;;;;;;;48.13;18.70;;;;;;;;;;5106445;28;20047;-79
2022/03/30 03:56:47;;;;;;;40.92;18.25;;;;;;;;;;5098956;28;20044;-79
2022/03/30 03:59:33;;;;;;;45.75;19.60;;;;;;;;;;5099251;28;20416;-79
2022/03/30 04:02:19;;;;;;;54.63;22.95;;;;;;;;;;5098806;28;20048;-80
2022/03/30 04:05:05;;;;;;;39.72;20.48;;;;;;;;;;5083697;28;20051;-79
2022/03/30 04:07:49;;;;;;;55.50;25.23;;;;;;;;;;5105140;28;20043;-81
2022/03/30 04:10:34;;;;;;;104.63;37.55;;;;;;;;;;5096735;28;20392;-80
2022/03/30 04:13:20;;;;;;;81.22;30.35;;;;;;;;;;5095161;28;20052;-79
2022/03/30 04:16:06;;;;;;;60.22;25.95;;;;;;;;;;5102968;28;20052;-80
2022/03/30 04:18:51;;;;;;;56.92;23.67;;;;;;;;;;5103734;28;20052;-78
2022/03/30 04:21:36;;;;;;;65.85;25.08;;;;;;;;;;5103801;28;20463;-80
2022/03/30 04:24:22;;;;;;;69.80;26.90;;;;;;;;;;5102933;28;20388;-80
2022/03/30 04:27:07;;;;;;;62.95;24.58;;;;;;;;;;5087221;28;20477;-79
2022/03/30 04:29:53;;;;;;;72.72;26.48;;;;;;;;;;5103106;28;20040;-79
2022/03/30 04:32:39;;;;;;;70.40;24.20;;;;;;;;;;5096905;28;20507;-79
2022/03/30 04:35:25;;;;;;;74.80;24.02;;;;;;;;;;5096484;28;20044;-79
2022/03/30 04:38:10;;;;;;;76.70;24.80;;;;;;;;;;5102885;28;20040;-79
2022/03/30 04:40:56;;;;;;;67.35;25.70;;;;;;;;;;5103254;28;20047;-79
2022/03/30 04:43:41;;;;;;;68.97;29.30;;;;;;;;;;5089364;28;20404;-79
2022/03/30 04:46:27;;;;;;;71.82;31.45;;;;;;;;;;5102808;28;20044;-80
2022/03/30 04:49:12;;;;;;;65.82;28.95;;;;;;;;;;5101141;28;20047;-78
2022/03/30 04:51:58;;;;;;;72.32;29.95;;;;;;;;;;5093274;28;20409;-80
2022/03/30 04:54:43;;;;;;;72.45;30.80;;;;;;;;;;5075913;28;20044;-79
2022/03/30 04:57:29;;;;;;;64.93;29.67;;;;;;;;;;5093868;28;20047;-80
2022/03/30 05:00:15;;;;;;;54.63;24.27;;;;;;;;;;5087490;28;20048;-79
2022/03/30 05:03:00;;;;;;;60.88;27.98;;;;;;;;;;5095560;28;20044;-79
2022/03/30 05:05:46;;;;;;;71.18;31.00;;;;;;;;;;5102063;28;20044;-79
2022/03/30 05:08:31;;;;;;;93.57;37.95;;;;;;;;;;5084841;28;20056;-79
2022/03/30 05:11:17;;;;;;;81.90;33.75;;;;;;;;;;5075252;28;20037;-80
2022/03/30 05:14:03;;;;;;;97.88;39.42;;;;;;;;;;5075357;28;20053;-79
2022/03/30 05:16:48;;;;;;;91.65;37.72;;;;;;;;;;5081278;28;20036;-79
2022/03/30 05:19:34;;;;;;;83.25;35.75;;;;;;;;;;5081931;28;20048;-79
2022/03/30 05:22:19;;;;;;;94.45;37.60;;;;;;;;;;5067212;28;20048;-80
2022/03/30 05:25:06;;;;;;;96.90;39.55;;;;;;;;;;5081895;28;20052;-79
2022/03/30 05:27:52;;;;;;;102.15;36.45;;;;;;;;;;5081340;28;20048;-80
2022/03/30 05:30:37;;;;;;;116.85;42.58;;;;;;;;;;5075116;28;20059;-79
2022/03/30 05:33:23;;;;;;;96.53;39.53;;;;;;;;;;5081252;28;20052;-79
2022/03/30 05:36:08;;;;;;;98.15;40.05;;;;;;;;;;5074828;28;20045;-80
2022/03/30 05:38:54;;;;;;;112.55;40.13;;;;;;;;;;5081391;28;20044;-79
2022/03/30 05:41:40;;;;;;;115.13;42.42;;;;;;;;;;5081061;28;20484;-79
2022/03/30 05:44:25;;;;;;;103.38;41.65;;;;;;;;;;5081609;28;20048;-80
2022/03/30 05:47:11;;;;;;;89.32;35.10;;;;;;;;;;5081670;28;20044;-80
2022/03/30 05:49:56;;;;;;;70.65;27.75;;;;;;;;;;5081087;28;20045;-79
2022/03/30 05:52:42;;;;;;;69.80;29.60;;;;;;;;;;5081254;28;20048;-81
2022/03/30 05:55:29;;;;;;;72.80;33.38;;;;;;;;;;5080709;28;20036;-80
2022/03/30 05:58:14;;;;;;;93.72;43.38;;;;;;;;;;5081527;28;20464;-80
2022/03/30 06:01:00;;;;;;;91.38;41.35;;;;;;;;;;5080757;28;20049;-81
2022/03/30 06:03:45;;;;;;;90.13;37.70;;;;;;;;;;5081122;28;20044;-81
2022/03/30 06:06:31;;;;;;;86.72;35.08;;;;;;;;;;5074381;28;20049;-80
2022/03/30 06:09:17;;;;;;;91.93;34.63;;;;;;;;;;5065546;28;20397;-80
2022/03/30 06:12:04;;;;;;;77.43;35.58;;;;;;;;;;5074515;28;20041;-80
2022/03/30 06:14:51;;;;;;;97.10;39.72;;;;;;;;;;5073635;28;20550;-80
2022/03/30 06:17:36;;;;;;;119.72;43.65;;;;;;;;;;5080833;28;20049;-79
2022/03/30 06:20:24;;;;;;;113.13;46.00;;;;;;;;;;5074411;28;20040;-82
2022/03/30 06:23:11;;;;;;;103.55;45.08;;;;;;;;;;5074339;28;20393;-80
2022/03/30 06:25:56;;;;;;;105.40;42.53;;;;;;;;;;5096863;28;20043;-80
2022/03/30 06:28:42;;;;;;;115.93;41.65;;;;;;;;;;5100767;28;20052;-80
2022/03/30 06:31:27;;;;;;;86.95;37.08;;;;;;;;;;5093874;28;20365;-81
2022/03/30 06:34:13;;;;;;;79.60;36.20;;;;;;;;;;5101315;28;20056;-81
2022/03/30 06:36:59;;;;;;;83.47;36.35;;;;;;;;;;5100330;28;20052;-79
2022/03/30 06:39:44;;;;;;;76.22;34.38;;;;;;;;;;5100793;28;20056;-80
2022/03/30 06:42:29;;;;;;;86.57;33.83;;;;;;;;;;5094039;28;20044;-80
2022/03/30 06:45:14;;;;;;;93.60;37.42;;;;;;;;;;5093833;28;20044;-81
2022/03/30 06:48:00;;;;;;;91.65;36.75;;;;;;;;;;5100739;28;20060;-78
2022/03/30 06:50:45;;;;;;;77.72;34.95;;;;;;;;;;5099574;28;20048;-80
2022/03/30 06:53:31;;;;;;;93.63;36.53;;;;;;;;;;5092973;28;20044;-80
2022/03/30 06:56:16;;;;;;;74.32;35.83;;;;;;;;;;5092085;28;20040;-78
2022/03/30 06:59:02;;;;;;;74.07;37.05;;;;;;;;;;5093816;28;20044;-80
2022/03/30 07:01:47;;;;;;;95.78;37.53;;;;;;;;;;5093395;28;20040;-81
2022/03/30 07:04:35;;;;;;;78.25;31.27;;;;;;;;;;5092430;28;20044;-80
2022/03/30 07:10:27;;;;;;;83.03;31.60;;;;;;;;;;5092323;28;20048;-80
2022/03/30 07:13:13;;;;;;;104.13;39.40;;;;;;;;;;5098010;28;20044;-79
2022/03/30 07:15:59;;;;;;;65.43;24.40;;;;;;;;;;5099213;28;20040;-79
2022/03/30 07:18:44;;;;;;;48.10;24.33;;;;;;;;;;5099783;28;20040;-79
2022/03/30 07:21:30;;;;;;;56.85;26.23;;;;;;;;;;5077549;28;20052;-80
2022/03/30 07:24:15;;;;;;;59.45;26.38;;;;;;;;;;5092443;28;20040;-79
2022/03/30 07:27:01;;;;;;;50.47;21.58;;;;;;;;;;5092747;28;20040;-80
2022/03/30 07:29:48;;;;;;;48.88;20.42;;;;;;;;;;5099968;28;20049;-81
2022/03/30 07:32:39;;;;;;;41.78;17.50;;;;;;;;;;5099611;28;20052;-80
2022/03/30 07:35:32;;;;;;;38.88;17.05;;;;;;;;;;5093396;28;20040;-80
2022/03/30 07:38:20;;;;;;;41.33;16.27;;;;;;;;;;5093605;28;20048;-78
2022/03/30 07:41:05;;;;;;;30.33;13.57;;;;;;;;;;5100173;28;20043;-81
2022/03/30 07:43:51;;;;;;;41.80;14.95;;;;;;;;;;5099868;28;20052;-80
2022/03/30 07:46:36;;;;;;;32.00;14.70;;;;;;;;;;5100272;28;20040;-79
2022/03/30 07:49:22;;;;;;;51.13;13.93;;;;;;;;;;5099992;28;20052;-79
2022/03/30 07:52:07;;;;;;;32.75;12.50;;;;;;;;;;5085246;28;20052;-79
2022/03/30 07:54:54;;;;;;;44.15;14.75;;;;;;;;;;5099901;28;20400;-79
2022/03/30 07:57:42;;;;;;;44.20;18.80;;;;;;;;;;5099931;28;20054;-79
2022/03/30 08:00:27;;;;;;;51.58;18.10;;;;;;;;;;5092937;28;20048;-79
2022/03/30 08:03:12;;;;;;;41.17;18.58;;;;;;;;;;5096949;28;20044;-81
2022/03/30 08:05:58;;;;;;;65.38;18.92;;;;;;;;;;5097220;28;20052;-79
2022/03/30 08:08:43;;;;;;;43.03;17.10;;;;;;;;;;5103585;28;20392;-80
2022/03/30 08:11:30;;;;;;;45.72;20.90;;;;;;;;;;5103229;28;20040;-79
2022/03/30 08:14:15;;;;;;;49.10;19.20;;;;;;;;;;5099780;28;20475;-80
2022/03/30 08:17:01;;;;;;;54.58;20.08;;;;;;;;;;5103163;28;20419;-80
2022/03/30 08:19:47;;;;;;;55.25;23.67;;;;;;;;;;5103492;28;20048;-80
2022/03/30 08:22:34;;;;;;;157.63;25.85;;;;;;;;;;5102708;28;20048;-80
2022/03/30 08:25:19;;;;;;;55.50;21.05;;;;;;;;;;5096382;28;20483;-80
2022/03/30 08:28:05;;;;;;;51.10;22.30;;;;;;;;;;5096341;28;20044;-81
2022/03/30 08:30:50;;;;;;;56.95;22.10;;;;;;;;;;5096724;28;20047;-80
2022/03/30 08:33:36;;;;;;;49.70;21.60;;;;;;;;;;5096174;28;20052;-79
2022/03/30 08:36:21;;;;;;;48.85;20.35;;;;;;;;;;5095925;28;20036;-78
2022/03/30 08:39:11;;;;;;;54.35;18.85;;;;;;;;;;5096362;28;20040;-78
2022/03/30 08:41:57;;;;;;;45.03;18.00;;;;;;;;;;5095908;28;20404;-79
2022/03/30 08:44:43;;;;;;;47.15;17.05;;;;;;;;;;5096056;28;20048;-78
2022/03/30 08:47:29;;;;;;;32.95;15.50;;;;;;;;;;5102670;28;20048;-79
2022/03/30 08:50:14;;;;;;;40.08;15.55;;;;;;;;;;5101808;28;20044;-79
2022/03/30 08:53:04;;;;;;;40.88;16.20;;;;;;;;;;5095795;28;20047;-79
2022/03/30 08:55:49;;;;;;;34.22;14.95;;;;;;;;;;5095367;28;20439;-78
2022/03/30 08:58:35;;;;;;;42.92;17.48;;;;;;;;;;5095973;28;20051;-79
2022/03/30 09:01:24;;;;;;;37.83;12.20;;;;;;;;;;5102123;28;20047;-79
2022/03/30 09:04:13;;;;;;;40.03;10.43;;;;;;;;;;5101979;28;20044;-79
2022/03/30 09:06:59;;;;;;;34.22;9.63;;;;;;;;;;5102156;28;20044;-82
2022/03/30 09:09:45;;;;;;;40.53;9.25;;;;;;;;;;5095064;28;20036;-80
2022/03/30 09:12:30;;;;;;;49.72;16.05;;;;;;;;;;5094824;28;20040;-80
2022/03/30 09:15:20;;;;;;;54.70;18.08;;;;;;;;;;5095530;28;20048;-80
2022/03/30 09:18:07;;;;;;;52.60;18.02;;;;;;;;;;5102117;28;20052;-81
2022/03/30 09:20:54;;;;;;;49.10;17.13;;;;;;;;;;5102197;28;20044;-80
2022/03/30 09:23:46;;;;;;;47.00;17.90;;;;;;;;;;5094856;28;20047;-84
2022/03/30 09:26:33;;;;;;;62.50;17.73;;;;;;;;;;5095658;28;20059;-81
2022/03/30 09:29:20;;;;;;;52.40;16.45;;;;;;;;;;5095450;28;20047;-82
2022/03/30 09:32:09;;;;;;;34.67;14.65;;;;;;;;;;5095163;28;20048;-81
2022/03/30 09:34:56;;;;;;;43.80;13.60;;;;;;;;;;5094564;28;20044;-81
2022/03/30 09:37:42;;;;;;;42.63;14.45;;;;;;;;;;5095061;28;20043;-83
2022/03/30 09:40:37;;;;;;;32.03;12.27;;;;;;;;;;5095377;28;20052;-83
2022/03/30 09:43:24;;;;;;;;;;;;;;;;;;5095555;28;20040;-81
2022/03/30 09:46:15;;;;;;;34.30;9.52;;;;;;;;;;5094976;28;19916;-81
2022/03/30 09:49:01;;;;;;;26.33;8.88;;;;;;;;;;5095257;28;20043;-81
2022/03/30 09:51:54;;;;;;;28.48;9.23;;;;;;;;;;5094923;28;20040;-81
2022/03/30 09:54:49;;;;;;;22.25;6.88;;;;;;;;;;5095255;28;20044;-81
2022/03/30 09:57:34;;;;;;;18.88;6.05;;;;;;;;;;5079353;28;20040;-82
2022/03/30 10:00:20;;;;;;;15.00;5.50;;;;;;;;;;5086202;28;20043;-82
2022/03/30 10:03:05;;;;;;;23.60;4.97;;;;;;;;;;5101289;28;20044;-81
2022/03/30 10:05:51;;;;;;;18.27;5.32;;;;;;;;;;5094183;28;20040;-81
2022/03/30 10:08:39;;;;;;;25.30;6.28;;;;;;;;;;5094932;28;20044;-81
2022/03/30 10:11:27;;;;;;;18.30;6.22;;;;;;;;;;5094402;28;20043;-81
2022/03/30 10:14:13;;;;;;;29.05;6.00;;;;;;;;;;5094411;28;20052;-82
2022/03/30 10:16:59;;;;;;;21.02;5.30;;;;;;;;;;5085679;28;20485;-83
2022/03/30 10:19:46;;;;;;;30.40;5.68;;;;;;;;;;5100896;28;20043;-82
2022/03/30 10:22:46;;;;;;;33.40;5.78;;;;;;;;;;5101385;28;20048;-82
2022/03/30 10:25:47;;;;;;;18.05;4.72;;;;;;;;;;5093004;28;20036;-81
2022/03/30 10:28:39;;;;;;;30.85;4.93;;;;;;;;;;5094240;28;20051;-82
2022/03/30 10:31:26;;;;;;;18.48;4.97;;;;;;;;;;5094234;28;20480;-81
2022/03/30 10:34:30;;;;;;;21.60;5.82;;;;;;;;;;5100105;28;20051;-83
2022/03/30 10:37:28;;;;;;;19.02;5.65;;;;;;;;;;5100627;28;20488;-81
2022/03/30 10:40:21;;;;;;;24.45;6.80;;;;;;;;;;5100641;28;20048;-81
2022/03/30 10:43:11;;;;;;;23.83;4.80;;;;;;;;;;5100584;28;20052;-80
2022/03/30 10:45:58;;;;;;;24.40;5.45;;;;;;;;;;5094217;28;20044;-82
2022/03/30 10:48:43;;;;;;;23.02;6.25;;;;;;;;;;5100989;28;20051;-79
2022/03/30 10:51:29;;;;;;;32.78;5.65;;;;;;;;;;5094438;28;20047;-81
2022/03/30 10:54:29;;;;;;;20.55;4.72;;;;;;;;;;5094116;28;20396;-80
2022/03/30 10:57:43;;;;;;;25.77;5.65;;;;;;;;;;5094864;28;20039;-80
2022/03/30 11:00:36;;;;;;;26.77;7.13;;;;;;;;;;5094107;28;20044;-80
2022/03/30 11:03:21;;;;;;;16.90;4.45;;;;;;;;;;5093467;28;20052;-82
2022/03/30 11:06:09;;;;;;;22.23;5.38;;;;;;;;;;5094655;28;20203;-80
2022/03/30 11:08:59;;;;;;;19.17;4.82;;;;;;;;;;5094561;28;20496;-82
2022/03/30 11:11:58;;;;;;;25.35;5.65;;;;;;;;;;5102445;28;20048;-84
2022/03/30 11:15:04;;;;;;;21.33;5.18;;;;;;;;;;5100875;28;20052;-81
2022/03/30 11:17:49;;;;;;;19.83;5.20;;;;;;;;;;5086154;28;20040;-83
2022/03/30 11:21:11;;;;;;;17.52;4.65;;;;;;;;;;5108905;28;20396;-81
2022/03/30 11:24:02;;;;;;;22.35;4.38;;;;;;;;;;5097357;28;20036;-81
2022/03/30 11:26:48;;;;;;;22.75;4.07;;;;;;;;;;5087335;28;20049;-80
2022/03/30 11:29:43;;;;;;;19.38;4.70;;;;;;;;;;5084538;28;20044;-80
2022/03/30 11:32:34;;;;;;;27.88;5.50;;;;;;;;;;5086043;28;20044;-84
2022/03/30 11:35:24;;;;;;;19.80;4.00;;;;;;;;;;5089678;28;20056;-82
2022/03/30 11:38:23;;;;;;;22.95;4.18;;;;;;;;;;5076186;28;20048;-83
2022/03/30 11:41:10;;;;;;;13.43;4.32;;;;;;;;;;5088059;28;20032;-79
2022/03/30 11:47:00;;;;;;;21.73;4.50;;;;;;;;;;5087394;28;20040;-81
2022/03/30 11:49:50;;;;;;;22.80;5.35;;;;;;;;;;5086454;28;20041;-81
2022/03/30 11:52:36;;;;;;;22.70;4.47;;;;;;;;;;5085194;28;20488;-84
2022/03/30 11:55:23;;;;;;;22.60;4.32;;;;;;;;;;5082865;28;20057;-80
2022/03/30 11:58:09;;;;;;;18.13;4.28;;;;;;;;;;5076991;28;20424;-81
2022/03/30 12:00:57;;;;;;;13.63;3.83;;;;;;;;;;5082923;28;20048;-82
2022/03/30 12:03:43;;;;;;;25.42;5.18;;;;;;;;;;5078154;28;20040;-82
2022/03/30 12:06:28;;;;;;;15.30;4.85;;;;;;;;;;5081918;28;20088;-83
2022/03/30 12:09:17;;;;;;;15.32;5.53;;;;;;;;;;5076253;28;20045;-82
2022/03/30 12:12:03;;;;;;;21.25;4.85;;;;;;;;;;5082962;28;20053;-84
2022/03/30 12:14:59;;;;;;;17.30;4.43;;;;;;;;;;5076556;28;20052;-82
2022/03/30 12:17:53;;;;;;;10.90;3.30;;;;;;;;;;5076532;28;20127;-81
2022/03/30 12:20:39;;;;;;;17.45;4.57;;;;;;;;;;5076110;28;20052;-83
2022/03/30 12:23:24;;;;;;;20.52;4.70;;;;;;;;;;5075282;28;20044;-81
2022/03/30 12:26:14;;;;;;;18.40;4.20;;;;;;;;;;5077117;28;20041;-84
2022/03/30 12:29:07;;;;;;;21.00;4.57;;;;;;;;;;5077440;28;20056;-81
2022/03/30 12:31:56;;;;;;;15.80;4.22;;;;;;;;;;5076028;28;20041;-82
2022/03/30 12:34:43;;;;;;;16.25;5.18;;;;;;;;;;5082470;28;20052;-81
2022/03/30 12:37:28;;;;;;;19.00;3.90;;;;;;;;;;5082704;28;20044;-80
2022/03/30 12:40:18;;;;;;;16.73;4.13;;;;;;;;;;5076385;28;20041;-81
2022/03/30 12:43:24;;;;;;;20.00;4.30;;;;;;;;;;5075082;28;20401;-83
2022/03/30 12:46:18;;;;;;;23.90;5.03;;;;;;;;;;5076359;28;20044;-80
2022/03/30 12:49:08;;;;;;;17.00;6.15;;;;;;;;;;5074883;28;20044;-82
2022/03/30 12:52:07;;;;;;;24.90;4.85;;;;;;;;;;5075573;28;20040;-83
2022/03/30 12:54:54;;;;;;;15.55;4.70;;;;;;;;;;5078841;28;20048;-83
2022/03/30 12:57:49;;;;;;;21.48;6.40;;;;;;;;;;5092520;28;20040;-83
2022/03/30 13:00:36;;;;;;;19.63;5.65;;;;;;;;;;5075606;28;20048;-81
2022/03/30 13:03:29;;;;;;;24.90;7.25;;;;;;;;;;5075322;28;20036;-82
2022/03/30 13:06:19;;;;;;;29.75;5.07;;;;;;;;;;5075742;28;20040;-81
2022/03/30 13:09:12;;;;;;;22.75;6.22;;;;;;;;;;5074526;28;20485;-79
2022/03/30 13:11:58;;;;;;;27.75;7.50;;;;;;;;;;5075168;28;20033;-79
2022/03/30 13:14:49;;;;;;;23.08;5.18;;;;;;;;;;5090176;28;20476;-81
2022/03/30 13:17:35;;;;;;;18.85;4.85;;;;;;;;;;5102490;28;20044;-82
2022/03/30 13:20:21;;;;;;;27.55;6.90;;;;;;;;;;5094970;28;20043;-84
2022/03/30 13:23:10;;;;;;;23.70;5.88;;;;;;;;;;5093621;28;20040;-81
2022/03/30 13:25:56;;;;;;;23.83;4.82;;;;;;;;;;5100051;28;20052;-81
2022/03/30 13:28:42;;;;;;;45.30;15.20;;;;;;;;;;5097769;28;20052;-80
2022/03/30 13:31:27;;;;;;;32.55;12.00;;;;;;;;;;5099013;28;20048;-81
2022/03/30 13:34:15;;;;;;;30.42;11.10;;;;;;;;;;5090614;28;20044;-80
2022/03/30 13:37:00;;;;;;;77.43;34.65;;;;;;;;;;5085073;28;20051;-80
2022/03/30 13:39:46;;;;;;;140.30;66.60;;;;;;;;;;5094575;28;20048;-83
2022/03/30 13:42:34;;;;;;;27.88;10.85;;;;;;;;;;5101601;28;20048;-79
2022/03/30 13:45:20;;;;;;;31.45;9.95;;;;;;;;;;5094747;28;20432;-83
2022/03/30 13:48:06;;;;;;;23.80;8.55;;;;;;;;;;5101912;28;20040;-82
2022/03/30 13:50:51;;;;;;;49.33;8.40;;;;;;;;;;5095454;28;20040;-82
2022/03/30 13:53:37;;;;;;;29.73;6.60;;;;;;;;;;5103325;28;20048;-80
2022/03/30 13:56:22;;;;;;;31.70;6.28;;;;;;;;;;5095095;28;20044;-83
2022/03/30 13:59:08;;;;;;;41.38;7.68;;;;;;;;;;5096338;28;20489;-81
2022/03/30 14:01:53;;;;;;;31.05;7.93;;;;;;;;;;5097001;28;20048;-80
2022/03/30 14:04:39;;;;;;;39.47;7.95;;;;;;;;;;5096294;28;20473;-79
2022/03/30 14:07:26;;;;;;;42.00;10.32;;;;;;;;;;5098242;28;20039;-82
2022/03/30 14:10:11;;;;;;;31.65;7.25;;;;;;;;;;5110618;28;20047;-77
2022/03/30 14:12:56;;;;;;;23.45;5.40;;;;;;;;;;5100287;28;20480;-81
2022/03/30 14:15:43;;;;;;;42.03;6.85;;;;;;;;;;5106652;28;20052;-82
2022/03/30 14:18:29;;;;;;;40.33;9.07;;;;;;;;;;5092500;28;20048;-81
2022/03/30 14:21:14;;;;;;;41.33;9.27;;;;;;;;;;5104466;28;20052;-82
2022/03/30 14:24:04;;;;;;;32.65;8.85;;;;;;;;;;5104774;28;20044;-85
2022/03/30 14:26:49;;;;;;;37.17;6.65;;;;;;;;;;5093850;28;20048;-81
2022/03/30 14:29:34;;;;;;;31.40;6.82;;;;;;;;;;5101640;28;20484;-81
2022/03/30 14:32:20;;;;;;;32.10;8.23;;;;;;;;;;5114250;28;20036;-80
2022/03/30 14:35:06;;;;;;;24.83;6.13;;;;;;;;;;5121109;28;20044;-80
2022/03/30 14:37:52;;;;;;;38.72;6.97;;;;;;;;;;5114948;28;20044;-81
2022/03/30 14:40:39;;;;;;;37.72;6.72;;;;;;;;;;5115732;28;20044;-79
2022/03/30 14:43:24;;;;;;;29.80;6.40;;;;;;;;;;5114004;28;20040;-80
2022/03/30 14:46:10;;;;;;;32.28;7.75;;;;;;;;;;5095600;28;20044;-83
2022/03/30 14:48:56;;;;;;;32.30;10.38;;;;;;;;;;5105174;28;20040;-82
2022/03/30 14:51:44;;;;;;;39.75;13.13;;;;;;;;;;5098141;28;20048;-81
2022/03/30 14:54:30;;;;;;;39.90;9.32;;;;;;;;;;5098398;28;20047;-82
2022/03/30 14:57:16;;;;;;;31.27;8.57;;;;;;;;;;5103429;28;20044;-84
2022/03/30 15:00:05;;;;;;;25.27;11.50;;;;;;;;;;5089019;28;20063;-84
2022/03/30 15:02:53;;;;;;;42.53;10.63;;;;;;;;;;5098146;28;20040;-81
2022/03/30 15:05:40;;;;;;;33.60;10.43;;;;;;;;;;5082336;28;20040;-83
2022/03/30 15:08:27;;;;;;;30.92;9.02;;;;;;;;;;5100230;28;20392;-82
2022/03/30 15:11:13;;;;;;;50.33;9.25;;;;;;;;;;5095201;28;20048;-82
2022/03/30 15:13:59;;;;;;;45.30;8.82;;;;;;;;;;5097614;28;20044;-80
2022/03/30 15:16:44;;;;;;;42.20;10.25;;;;;;;;;;5098164;28;20139;-80
2022/03/30 15:19:30;;;;;;;39.42;10.50;;;;;;;;;;5104784;28;20048;-80
2022/03/30 15:22:16;;;;;;;38.30;9.15;;;;;;;;;;5097586;28;20392;-81
2022/03/30 15:25:01;;;;;;;29.27;6.93;;;;;;;;;;5090971;28;20400;-83
2022/03/30 15:27:46;;;;;;;31.38;9.88;;;;;;;;;;5088196;28;20543;-82
2022/03/30 15:30:31;;;;;;;40.75;12.40;;;;;;;;;;5097456;28;20044;-82
2022/03/30 15:33:17;;;;;;;130.65;60.42;;;;;;;;;;5104352;28;20392;-79
2022/03/30 15:36:03;;;;;;;144.43;62.10;;;;;;;;;;5096984;28;20048;-82
2022/03/30 15:38:48;;;;;;;65.22;27.85;;;;;;;;;;5104739;28;20496;-81
2022/03/30 15:41:34;;;;;;;58.60;14.43;;;;;;;;;;5097159;28;20399;-80
2022/03/30 15:44:19;;;;;;;58.08;14.80;;;;;;;;;;5098184;28;20036;-79
2022/03/30 15:47:06;;;;;;;46.60;13.20;;;;;;;;;;5097143;28;20480;-80
2022/03/30 15:49:52;;;;;;;39.42;11.50;;;;;;;;;;5096835;28;20048;-81
2022/03/30 15:52:39;;;;;;;49.47;14.13;;;;;;;;;;5097364;28;20040;-81
2022/03/30 15:55:25;;;;;;;72.45;28.38;;;;;;;;;;5097321;28;20052;-79
2022/03/30 15:58:10;;;;;;;53.22;18.58;;;;;;;;;;5097132;28;20055;-86
2022/03/30 16:00:56;;;;;;;57.90;18.33;;;;;;;;;;5098055;28;20048;-83
2022/03/30 16:03:42;;;;;;;53.60;17.05;;;;;;;;;;5097124;28;20404;-83
2022/03/30 16:06:30;;;;;;;60.83;19.48;;;;;;;;;;5090176;28;20036;-82
2022/03/30 16:09:17;;;;;;;64.15;16.67;;;;;;;;;;5104431;28;20048;-82
2022/03/30 16:12:11;;;;;;;50.25;17.40;;;;;;;;;;5098300;28;20061;-81
2022/03/30 16:14:59;;;;;;;58.75;17.83;;;;;;;;;;5102081;28;20056;-83
2022/03/30 16:17:44;;;;;;;59.45;18.95;;;;;;;;;;5084202;28;20040;-82
2022/03/30 16:20:31;;;;;;;85.72;29.83;;;;;;;;;;5109141;28;20044;-82
2022/03/30 16:23:16;;;;;;;83.20;27.42;;;;;;;;;;5106622;28;20048;-81
2022/03/30 16:26:02;;;;;;;49.40;15.20;;;;;;;;;;5090210;28;20040;-79
2022/03/30 16:28:50;;;;;;;44.95;10.65;;;;;;;;;;5070065;28;20052;-82